createdAt,value
2017-08-05T00:00:44.271Z,98.28
2017-08-05T00:01:56.572Z,98.19
2017-08-05T00:03:08.580Z,98.19
2017-08-05T00:04:21.164Z,98.28
2017-08-05T00:05:33.465Z,98.19
2017-08-05T00:06:46.043Z,98.67
2017-08-05T00:07:58.356Z,98.57
2017-08-05T00:09:10.663Z,98.48
2017-08-05T00:10:23.475Z,98.57
2017-08-05T00:11:35.795Z,98.77
2017-08-05T00:12:48.121Z,99.15
2017-08-05T00:14:00.730Z,98.96
2017-08-05T00:15:13.046Z,99.34
2017-08-05T00:16:25.372Z,99.44
2017-08-05T00:17:37.922Z,99.73
2017-08-05T00:18:50.654Z,99.63
2017-08-05T00:20:03.200Z,99.82
2017-08-05T00:21:15.187Z,99.91
2017-08-05T00:22:27.773Z,99.91
2017-08-05T00:23:40.386Z,99.99
2017-08-05T00:24:52.950Z,99.73
2017-08-05T00:26:05.477Z,99.91
2017-08-05T00:27:18.081Z,99.91
2017-08-05T00:28:30.631Z,99.99
2017-08-05T00:29:43.309Z,99.91
2017-08-05T00:30:55.530Z,99.82
2017-08-05T00:32:08.132Z,99.91
2017-08-05T00:33:20.440Z,99.91
2017-08-05T00:34:33.025Z,99.82
2017-08-05T00:35:45.307Z,99.73
2017-08-05T00:36:57.618Z,99.99
2017-08-05T00:38:09.587Z,99.99
2017-08-05T00:39:22.183Z,99.82
2017-08-05T00:40:34.496Z,99.91
2017-08-05T00:41:47.106Z,99.99
2017-08-05T00:42:59.596Z,99.91
2017-08-05T00:44:11.853Z,99.73
2017-08-05T00:45:24.413Z,99.91
2017-08-05T00:46:36.986Z,99.91
2017-08-05T00:47:49.609Z,99.82
2017-08-05T00:49:02.168Z,99.99
2017-08-05T00:50:14.463Z,99.99
2017-08-05T00:51:26.710Z,99.99
2017-08-05T00:52:39.346Z,99.87
2017-08-05T00:53:51.945Z,99.99
2017-08-05T00:55:04.584Z,99.99
2017-08-05T00:56:17.182Z,99.99
2017-08-05T00:57:29.407Z,99.99
2017-08-05T00:58:42.015Z,99.99
2017-08-05T00:59:54.357Z,99.99
2017-08-05T01:01:06.940Z,99.99
2017-08-05T01:02:19.567Z,99.99
2017-08-05T01:03:32.202Z,99.99
2017-08-05T01:04:44.826Z,99.99
2017-08-05T01:05:57.399Z,99.99
2017-08-05T01:07:09.638Z,99.99
2017-08-05T01:08:22.267Z,99.99
2017-08-05T01:09:34.584Z,99.99
2017-08-05T01:10:46.926Z,99.99
2017-08-05T01:11:59.526Z,99.99
2017-08-05T01:13:12.100Z,99.99
2017-08-05T01:14:24.415Z,99.99
2017-08-05T01:15:36.675Z,99.99
2017-08-05T01:16:49.318Z,99.99
2017-08-05T01:18:01.929Z,99.99
2017-08-05T01:19:14.240Z,99.99
2017-08-05T01:20:26.787Z,99.99
2017-08-05T01:21:39.345Z,99.99
2017-08-05T01:22:51.925Z,99.99
2017-08-05T01:24:04.558Z,99.99
2017-08-05T01:25:16.802Z,99.99
2017-08-05T01:26:29.408Z,99.99
2017-08-05T01:27:42.019Z,99.99
2017-08-05T01:28:54.569Z,99.99
2017-08-05T01:30:06.842Z,99.99
2017-08-05T01:31:19.449Z,99.99
2017-08-05T01:32:31.746Z,99.99
2017-08-05T01:33:44.328Z,99.99
2017-08-05T01:34:56.947Z,99.99
2017-08-05T01:36:09.545Z,99.99
2017-08-05T01:37:22.154Z,99.99
2017-08-05T01:38:34.458Z,99.99
2017-08-05T01:39:47.085Z,99.99
2017-08-05T01:40:59.711Z,99.99
2017-08-05T01:42:11.971Z,99.99
2017-08-05T01:43:24.566Z,99.99
2017-08-05T01:44:36.218Z,99.99
2017-08-05T01:45:48.757Z,99.99
2017-08-05T01:47:01.063Z,99.99
2017-08-05T01:48:13.918Z,99.99
2017-08-05T01:49:26.474Z,99.99
2017-08-05T01:50:39.118Z,99.99
2017-08-05T01:51:51.061Z,99.99
2017-08-05T01:53:03.370Z,99.99
2017-08-05T01:54:15.959Z,99.99
2017-08-05T01:55:28.542Z,99.99
2017-08-05T01:56:40.503Z,99.99
2017-08-05T01:57:53.142Z,99.99
2017-08-05T01:59:05.763Z,99.99
2017-08-05T02:00:17.730Z,99.99
2017-08-05T02:01:30.330Z,99.99
2017-08-05T02:02:42.929Z,99.99
2017-08-05T02:03:55.249Z,99.99
2017-08-05T02:05:07.869Z,99.99
2017-08-05T02:06:19.552Z,99.99
2017-08-05T02:07:32.177Z,99.99
2017-08-05T02:08:44.708Z,99.99
2017-08-05T02:09:57.302Z,99.99
2017-08-05T02:11:09.609Z,99.99
2017-08-05T02:12:22.255Z,99.99
2017-08-05T02:13:34.892Z,99.99
2017-08-05T02:14:47.492Z,99.99
2017-08-05T02:16:00.133Z,99.99
2017-08-05T02:17:12.707Z,99.99
2017-08-05T02:18:25.239Z,99.99
2017-08-05T02:19:37.445Z,99.99
2017-08-05T02:20:50.306Z,99.99
2017-08-05T02:22:02.617Z,99.99
2017-08-05T02:23:14.563Z,99.99
2017-08-05T02:24:27.131Z,99.99
2017-08-05T02:25:39.749Z,99.99
2017-08-05T02:26:52.023Z,99.99
2017-08-05T02:28:04.608Z,99.99
2017-08-05T02:29:17.197Z,99.99
2017-08-05T02:30:29.765Z,99.99
2017-08-05T02:31:42.057Z,99.99
2017-08-05T02:32:54.676Z,99.99
2017-08-05T02:34:06.937Z,99.99
2017-08-05T02:35:19.492Z,99.99
2017-08-05T02:36:32.068Z,99.99
2017-08-05T02:37:44.621Z,99.99
2017-08-05T02:38:57.215Z,99.99
2017-08-05T02:40:09.516Z,99.99
2017-08-05T02:41:22.152Z,99.99
2017-08-05T02:42:34.767Z,99.99
2017-08-05T02:43:47.330Z,99.99
2017-08-05T02:44:59.875Z,99.99
2017-08-05T02:46:12.409Z,99.99
2017-08-05T02:47:25.013Z,99.99
2017-08-05T02:48:37.631Z,99.99
2017-08-05T02:49:50.217Z,99.99
2017-08-05T02:51:02.455Z,99.99
2017-08-05T02:52:15.060Z,99.99
2017-08-05T02:53:27.596Z,99.99
2017-08-05T02:54:40.208Z,99.99
2017-08-05T02:55:52.790Z,99.99
2017-08-05T02:57:05.334Z,99.99
2017-08-05T02:58:17.831Z,99.99
2017-08-05T02:59:30.409Z,99.99
2017-08-05T03:00:42.946Z,99.99
2017-08-05T03:01:55.195Z,99.99
2017-08-05T03:03:07.775Z,99.99
2017-08-05T03:04:20.371Z,99.99
2017-08-05T03:05:32.981Z,99.99
2017-08-05T03:06:45.270Z,99.99
2017-08-05T03:07:57.312Z,99.99
2017-08-05T03:09:09.962Z,99.99
2017-08-05T03:10:22.606Z,99.99
2017-08-05T03:11:35.224Z,99.99
2017-08-05T03:12:47.850Z,99.99
2017-08-05T03:14:00.427Z,99.99
2017-08-05T03:15:12.132Z,99.99
2017-08-05T03:16:24.419Z,99.99
2017-08-05T03:17:36.946Z,99.99
2017-08-05T03:18:49.219Z,99.99
2017-08-05T03:20:01.842Z,99.99
2017-08-05T03:21:14.402Z,99.99
2017-08-05T03:22:26.958Z,99.99
2017-08-05T03:23:39.526Z,99.99
2017-08-05T03:24:51.875Z,99.99
2017-08-05T03:26:04.760Z,99.99
2017-08-05T03:27:17.288Z,99.99
2017-08-05T03:28:29.898Z,99.99
2017-08-05T03:29:42.436Z,99.99
2017-08-05T03:30:55.077Z,99.99
2017-08-05T03:32:07.591Z,99.99
2017-08-05T03:33:20.118Z,99.99
2017-08-05T03:34:32.701Z,99.99
2017-08-05T03:35:44.935Z,99.99
2017-08-05T03:36:57.568Z,99.99
2017-08-05T03:38:10.131Z,99.99
2017-08-05T03:39:22.673Z,99.99
2017-08-05T03:40:35.322Z,99.99
2017-08-05T03:41:47.627Z,99.99
2017-08-05T03:43:00.004Z,99.99
2017-08-05T03:44:12.593Z,99.99
2017-08-05T03:45:25.153Z,99.99
2017-08-05T03:46:37.773Z,99.99
2017-08-05T03:47:50.593Z,99.99
2017-08-05T03:49:02.867Z,99.99
2017-08-05T03:50:15.164Z,99.99
2017-08-05T03:51:27.764Z,99.99
2017-08-05T03:52:40.083Z,99.99
2017-08-05T03:53:52.673Z,99.99
2017-08-05T03:55:04.646Z,99.99
2017-08-05T03:56:16.990Z,99.99
2017-08-05T03:57:29.576Z,99.99
2017-08-05T03:58:42.139Z,99.99
2017-08-05T03:59:54.730Z,99.99
2017-08-05T04:01:07.352Z,99.99
2017-08-05T04:02:20.020Z,99.99
2017-08-05T04:03:32.628Z,99.99
2017-08-05T04:04:45.266Z,99.99
2017-08-05T04:05:57.907Z,99.99
2017-08-05T04:07:10.504Z,99.99
2017-08-05T04:08:23.050Z,99.99
2017-08-05T04:09:35.677Z,99.99
2017-08-05T04:10:48.267Z,99.99
2017-08-05T04:12:00.920Z,99.99
2017-08-05T04:13:13.477Z,99.99
2017-08-05T04:14:26.063Z,99.99
2017-08-05T04:15:38.576Z,99.99
2017-08-05T04:16:51.166Z,99.99
2017-08-05T04:18:03.804Z,99.99
2017-08-05T04:19:16.055Z,99.99
2017-08-05T04:20:28.709Z,99.99
2017-08-05T04:21:41.233Z,99.99
2017-08-05T04:22:53.544Z,99.99
2017-08-05T04:24:06.138Z,99.99
2017-08-05T04:25:18.750Z,99.99
2017-08-05T04:26:31.343Z,99.99
2017-08-05T04:27:43.917Z,99.99
2017-08-05T04:28:56.504Z,99.99
2017-08-05T04:30:08.505Z,99.99
2017-08-05T04:31:21.132Z,99.99
2017-08-05T04:32:33.375Z,99.99
2017-08-05T04:33:45.979Z,99.99
2017-08-05T04:34:58.618Z,99.99
2017-08-05T04:36:10.575Z,99.99
2017-08-05T04:37:22.878Z,99.99
2017-08-05T04:38:35.154Z,99.99
2017-08-05T04:39:47.396Z,99.99
2017-08-05T04:40:59.689Z,99.99
2017-08-05T04:42:12.272Z,99.99
2017-08-05T04:43:24.875Z,99.99
2017-08-05T04:44:37.152Z,99.99
2017-08-05T04:45:49.726Z,99.99
2017-08-05T04:47:02.319Z,99.99
2017-08-05T04:48:14.894Z,99.99
2017-08-05T04:49:27.488Z,99.99
2017-08-05T04:50:39.497Z,99.99
2017-08-05T04:51:52.096Z,99.99
2017-08-05T04:53:04.667Z,99.99
2017-08-05T04:54:16.619Z,99.99
2017-08-05T04:55:29.233Z,99.99
2017-08-05T04:56:41.779Z,99.99
2017-08-05T04:57:54.295Z,99.99
2017-08-05T04:59:06.958Z,99.99
2017-08-05T05:00:19.578Z,99.99
2017-08-05T05:01:32.151Z,99.99
2017-08-05T05:02:44.370Z,99.99
2017-08-05T05:03:56.971Z,99.99
2017-08-05T05:05:09.569Z,99.99
2017-08-05T05:06:22.172Z,99.99
2017-08-05T05:07:34.709Z,99.99
2017-08-05T05:08:47.331Z,99.99
2017-08-05T05:09:59.592Z,99.99
2017-08-05T05:11:11.867Z,99.99
2017-08-05T05:12:24.534Z,99.99
2017-08-05T05:13:37.140Z,99.99
2017-08-05T05:14:49.727Z,99.99
2017-08-05T05:16:02.309Z,99.99
2017-08-05T05:17:14.568Z,99.99
2017-08-05T05:18:27.188Z,99.99
2017-08-05T05:19:39.426Z,99.99
2017-08-05T05:20:52.035Z,99.99
2017-08-05T05:22:04.619Z,99.99
2017-08-05T05:23:16.882Z,99.99
2017-08-05T05:24:29.460Z,99.99
2017-08-05T05:25:42.074Z,99.99
2017-08-05T05:26:54.121Z,99.99
2017-08-05T05:28:06.430Z,99.99
2017-08-05T05:29:18.692Z,99.99
2017-08-05T05:30:30.983Z,99.99
2017-08-05T05:31:43.221Z,99.99
2017-08-05T05:32:55.512Z,99.99
2017-08-05T05:34:08.096Z,99.99
2017-08-05T05:35:20.480Z,99.99
2017-08-05T05:36:33.153Z,99.99
2017-08-05T05:37:45.677Z,99.99
2017-08-05T05:38:58.272Z,99.99
2017-08-05T05:40:10.890Z,99.99
2017-08-05T05:41:23.178Z,99.99
2017-08-05T05:42:35.759Z,99.99
2017-08-05T05:43:48.308Z,99.99
2017-08-05T05:45:00.951Z,99.99
2017-08-05T05:46:13.573Z,99.99
2017-08-05T05:47:25.857Z,99.99
2017-08-05T05:48:38.419Z,99.99
2017-08-05T05:49:51.025Z,99.99
2017-08-05T05:51:03.335Z,99.99
2017-08-05T05:52:15.909Z,99.99
2017-08-05T05:53:28.776Z,99.99
2017-08-05T05:54:41.349Z,99.99
2017-08-05T05:55:53.927Z,99.99
2017-08-05T05:57:05.952Z,99.99
2017-08-05T05:58:18.548Z,99.99
2017-08-05T05:59:30.542Z,99.99
2017-08-05T06:00:42.857Z,99.99
2017-08-05T06:01:55.496Z,99.99
2017-08-05T06:03:07.797Z,99.99
2017-08-05T06:04:20.056Z,99.99
2017-08-05T06:05:32.710Z,99.99
2017-08-05T06:06:44.948Z,99.99
2017-08-05T06:07:57.268Z,99.99
2017-08-05T06:09:09.566Z,99.99
2017-08-05T06:10:22.218Z,99.99
2017-08-05T06:11:34.811Z,99.99
2017-08-05T06:12:47.469Z,99.99
2017-08-05T06:14:00.099Z,99.99
2017-08-05T06:15:12.426Z,99.99
2017-08-05T06:16:24.709Z,99.99
2017-08-05T06:17:37.290Z,99.99
2017-08-05T06:18:49.894Z,99.99
2017-08-05T06:20:02.252Z,99.99
2017-08-05T06:21:14.504Z,99.99
2017-08-05T06:22:26.772Z,99.99
2017-08-05T06:23:39.346Z,99.99
2017-08-05T06:24:51.956Z,99.99
2017-08-05T06:26:04.246Z,99.99
2017-08-05T06:27:16.231Z,99.68
2017-08-05T06:28:28.850Z,99.73
2017-08-05T06:29:41.108Z,99.44
2017-08-05T06:30:53.692Z,98.63
2017-08-05T06:32:06.254Z,98.72
2017-08-05T06:33:18.841Z,97.96
2017-08-05T06:34:31.155Z,97.52
2017-08-05T06:35:43.744Z,96.85
2017-08-05T06:36:56.046Z,95.55
2017-08-05T06:38:08.286Z,94.64
2017-08-05T06:39:20.892Z,93.04
2017-08-05T06:40:33.484Z,90.54
2017-08-05T06:41:46.324Z,89.81
2017-08-05T06:42:58.244Z,88.31
2017-08-05T06:44:10.555Z,87.68
2017-08-05T06:45:22.876Z,87.44
2017-08-05T06:46:35.547Z,85.45
2017-08-05T06:47:48.107Z,85.3
2017-08-05T06:49:00.813Z,84.38
2017-08-05T06:50:13.389Z,83.45
2017-08-05T06:51:25.688Z,82.14
2017-08-05T06:52:38.327Z,80.82
2017-08-05T06:53:50.897Z,78.64
2017-08-05T06:55:03.160Z,78.44
2017-08-05T06:56:15.763Z,77.8
2017-08-05T06:57:28.320Z,76.39
2017-08-05T06:58:40.881Z,74.64
2017-08-05T06:59:53.419Z,74.19
2017-08-05T07:01:05.988Z,74.1
2017-08-05T07:02:18.645Z,72.49
2017-08-05T07:03:30.926Z,71.64
2017-08-05T07:04:43.496Z,70.97
2017-08-05T07:05:55.792Z,71.2
2017-08-05T07:07:08.432Z,70.36
2017-08-05T07:08:20.740Z,70.45
2017-08-05T07:09:33.063Z,69.48
2017-08-05T07:10:45.631Z,67.86
2017-08-05T07:11:57.964Z,67.57
2017-08-05T07:13:10.561Z,66.6
2017-08-05T07:14:23.225Z,66.44
2017-08-05T07:15:35.819Z,65.95
2017-08-05T07:16:48.089Z,65.4
2017-08-05T07:18:00.693Z,65.59
2017-08-05T07:19:12.753Z,65.92
2017-08-05T07:20:25.461Z,64.55
2017-08-05T07:21:37.494Z,64.39
2017-08-05T07:22:49.517Z,63.9
2017-08-05T07:24:02.083Z,62.18
2017-08-05T07:25:14.916Z,62.08
2017-08-05T07:26:27.459Z,61.21
2017-08-05T07:27:40.101Z,59.58
2017-08-05T07:28:52.689Z,59.28
2017-08-05T07:30:05.304Z,59.19
2017-08-05T07:31:17.964Z,59.9
2017-08-05T07:32:30.527Z,58.92
2017-08-05T07:33:43.103Z,58.73
2017-08-05T07:34:55.725Z,58.92
2017-08-05T07:36:07.998Z,59.41
2017-08-05T07:37:20.636Z,59.05
2017-08-05T07:38:33.206Z,58.5
2017-08-05T07:39:45.469Z,58.4
2017-08-05T07:40:58.160Z,57.62
2017-08-05T07:42:10.813Z,57.23
2017-08-05T07:43:23.398Z,57.03
2017-08-05T07:44:35.379Z,57.06
2017-08-05T07:45:48.019Z,56.76
2017-08-05T07:47:00.813Z,56.86
2017-08-05T07:48:13.080Z,56.86
2017-08-05T07:49:25.644Z,56.4
2017-08-05T07:50:38.234Z,56.1
2017-08-05T07:51:50.876Z,55.13
2017-08-05T07:53:03.496Z,54.83
2017-08-05T07:54:15.860Z,54.83
2017-08-05T07:55:28.185Z,55.32
2017-08-05T07:56:40.805Z,55.22
2017-08-05T07:57:53.116Z,54.93
2017-08-05T07:59:05.362Z,54.74
2017-08-05T08:00:18.028Z,54.67
2017-08-05T08:01:30.334Z,55.35
2017-08-05T08:02:42.658Z,55.06
2017-08-05T08:03:55.295Z,54.57
2017-08-05T08:05:07.899Z,54.77
2017-08-05T08:06:20.228Z,54.08
2017-08-05T08:07:32.847Z,54.57
2017-08-05T08:08:45.445Z,54.28
2017-08-05T08:09:58.059Z,53.98
2017-08-05T08:11:09.756Z,54.47
2017-08-05T08:12:22.403Z,54.38
2017-08-05T08:13:35.049Z,54.64
2017-08-05T08:14:47.391Z,54.83
2017-08-05T08:15:59.952Z,54.74
2017-08-05T08:17:12.315Z,54.74
2017-08-05T08:18:24.929Z,54.64
2017-08-05T08:19:37.856Z,54.83
2017-08-05T08:20:50.449Z,54.77
2017-08-05T08:22:02.718Z,55.03
2017-08-05T08:23:14.987Z,54.64
2017-08-05T08:24:27.320Z,54.93
2017-08-05T08:25:39.920Z,54.35
2017-08-05T08:26:52.258Z,54.61
2017-08-05T08:28:04.839Z,55.27
2017-08-05T08:29:17.468Z,56.45
2017-08-05T08:30:29.437Z,57.2
2017-08-05T08:31:41.716Z,57.88
2017-08-05T08:32:54.052Z,57.17
2017-08-05T08:34:06.080Z,57.26
2017-08-05T08:35:18.689Z,57.43
2017-08-05T08:36:30.999Z,57.4
2017-08-05T08:37:43.339Z,57.89
2017-08-05T08:38:55.934Z,58.06
2017-08-05T08:40:08.297Z,59.42
2017-08-05T08:41:20.863Z,60.1
2017-08-05T08:42:33.497Z,61.34
2017-08-05T08:43:45.844Z,61.51
2017-08-05T08:44:58.463Z,61.9
2017-08-05T08:46:10.442Z,61.99
2017-08-05T08:47:23.042Z,61.7
2017-08-05T08:48:35.360Z,61.8
2017-08-05T08:49:47.939Z,61.9
2017-08-05T08:51:00.242Z,62.77
2017-08-05T08:52:12.523Z,62.06
2017-08-05T08:53:24.804Z,61.28
2017-08-05T08:54:37.406Z,60.92
2017-08-05T08:55:49.959Z,60.82
2017-08-05T08:57:02.224Z,60.72
2017-08-05T08:58:14.797Z,60.5
2017-08-05T08:59:27.383Z,61.18
2017-08-05T09:00:40.039Z,60.7
2017-08-05T09:01:52.655Z,60.6
2017-08-05T09:03:04.936Z,61.08
2017-08-05T09:04:17.185Z,61.47
2017-08-05T09:05:29.837Z,62.45
2017-08-05T09:06:42.108Z,62.74
2017-08-05T09:07:54.729Z,62.54
2017-08-05T09:09:07.332Z,60.99
2017-08-05T09:10:19.934Z,60.99
2017-08-05T09:11:32.580Z,62.06
2017-08-05T09:12:45.256Z,63.35
2017-08-05T09:13:57.827Z,62.06
2017-08-05T09:15:10.136Z,62.16
2017-08-05T09:16:22.461Z,61.08
2017-08-05T09:17:34.528Z,61.87
2017-08-05T09:18:46.892Z,62.16
2017-08-05T09:19:59.432Z,62.16
2017-08-05T09:21:11.784Z,63.2
2017-08-05T09:22:24.026Z,64.07
2017-08-05T09:23:36.383Z,63.97
2017-08-05T09:24:49.033Z,63.29
2017-08-05T09:26:01.647Z,64.26
2017-08-05T09:27:14.210Z,63.29
2017-08-05T09:28:26.791Z,63.2
2017-08-05T09:29:39.149Z,62.9
2017-08-05T09:30:51.770Z,63.39
2017-08-05T09:32:04.412Z,62.9
2017-08-05T09:33:16.951Z,63.1
2017-08-05T09:34:29.550Z,63.29
2017-08-05T09:35:41.853Z,63.29
2017-08-05T09:36:54.455Z,63.39
2017-08-05T09:38:06.817Z,62.71
2017-08-05T09:39:19.417Z,63.03
2017-08-05T09:40:31.737Z,63.03
2017-08-05T09:41:44.065Z,63.52
2017-08-05T09:42:56.615Z,62.64
2017-08-05T09:44:09.263Z,61.87
2017-08-05T09:45:21.897Z,62.54
2017-08-05T09:46:34.466Z,63.23
2017-08-05T09:47:46.119Z,64.29
2017-08-05T09:48:58.400Z,63.71
2017-08-05T09:50:10.697Z,62.64
2017-08-05T09:51:23.318Z,62.93
2017-08-05T09:52:35.612Z,62.45
2017-08-05T09:53:48.159Z,62.16
2017-08-05T09:55:00.734Z,62.35
2017-08-05T09:56:12.714Z,63.62
2017-08-05T09:57:25.035Z,64.29
2017-08-05T09:58:37.693Z,64
2017-08-05T09:59:50.286Z,64.2
2017-08-05T10:01:02.900Z,64.49
2017-08-05T10:02:15.440Z,64.52
2017-08-05T10:03:28.096Z,63.26
2017-08-05T10:04:40.392Z,63.45
2017-08-05T10:05:52.943Z,63.84
2017-08-05T10:07:05.488Z,61.99
2017-08-05T10:08:17.811Z,61.99
2017-08-05T10:09:30.389Z,62.19
2017-08-05T10:10:43.047Z,63.16
2017-08-05T10:11:55.644Z,63.26
2017-08-05T10:13:08.252Z,61.8
2017-08-05T10:14:20.972Z,62.09
2017-08-05T10:15:33.663Z,61.8
2017-08-05T10:16:46.321Z,61.9
2017-08-05T10:17:58.880Z,62.57
2017-08-05T10:19:10.864Z,62.38
2017-08-05T10:20:23.491Z,64.26
2017-08-05T10:21:35.498Z,61.9
2017-08-05T10:22:48.159Z,63.65
2017-08-05T10:24:00.466Z,64.13
2017-08-05T10:25:12.724Z,64.23
2017-08-05T10:26:25.345Z,63.45
2017-08-05T10:27:37.984Z,63.94
2017-08-05T10:28:50.334Z,64.2
2017-08-05T10:30:02.336Z,64.2
2017-08-05T10:31:14.341Z,64.78
2017-08-05T10:32:26.949Z,65.04
2017-08-05T10:33:39.342Z,65.63
2017-08-05T10:34:51.945Z,65.63
2017-08-05T10:36:03.981Z,65.72
2017-08-05T10:37:16.570Z,66.47
2017-08-05T10:38:29.198Z,66.86
2017-08-05T10:39:41.762Z,67.21
2017-08-05T10:40:54.371Z,66.82
2017-08-05T10:42:06.658Z,66.89
2017-08-05T10:43:18.941Z,67.8
2017-08-05T10:44:31.528Z,67.66
2017-08-05T10:45:44.102Z,68.05
2017-08-05T10:46:56.704Z,68.93
2017-08-05T10:48:08.658Z,69.28
2017-08-05T10:49:20.968Z,69.57
2017-08-05T10:50:33.570Z,69.28
2017-08-05T10:51:46.140Z,69.34
2017-08-05T10:52:58.816Z,69.54
2017-08-05T10:54:11.133Z,69.73
2017-08-05T10:55:23.473Z,69.93
2017-08-05T10:56:36.111Z,71.09
2017-08-05T10:57:48.391Z,69.44
2017-08-05T10:59:00.677Z,69.34
2017-08-05T11:00:12.660Z,69.34
2017-08-05T11:01:25.008Z,69.7
2017-08-05T11:02:37.666Z,70.47
2017-08-05T11:03:50.244Z,71.06
2017-08-05T11:05:02.588Z,71.34
2017-08-05T11:06:14.853Z,71.64
2017-08-05T11:07:27.506Z,72.61
2017-08-05T11:08:39.481Z,72.31
2017-08-05T11:09:52.072Z,72.57
2017-08-05T11:11:04.381Z,74.51
2017-08-05T11:12:16.642Z,77.9
2017-08-05T11:13:29.290Z,80.87
2017-08-05T11:14:41.282Z,83.09
2017-08-05T11:15:53.596Z,83.38
2017-08-05T11:17:06.237Z,85.57
2017-08-05T11:18:18.844Z,86.34
2017-08-05T11:19:31.146Z,87.75
2017-08-05T11:20:43.692Z,87.95
2017-08-05T11:21:56.300Z,87.32
2017-08-05T11:23:08.257Z,87.95
2017-08-05T11:24:20.524Z,87.27
2017-08-05T11:25:33.099Z,87.43
2017-08-05T11:26:45.447Z,87.13
2017-08-05T11:27:58.005Z,87.58
2017-08-05T11:29:09.926Z,87.87
2017-08-05T11:30:21.934Z,87.48
2017-08-05T11:31:34.475Z,87.87
2017-08-05T11:32:47.026Z,87.44
2017-08-05T11:33:59.617Z,89.07
2017-08-05T11:35:11.865Z,90.33
2017-08-05T11:36:23.883Z,89.95
2017-08-05T11:37:36.133Z,90.48
2017-08-05T11:38:48.776Z,90.77
2017-08-05T11:40:01.050Z,90
2017-08-05T11:41:13.685Z,89.9
2017-08-05T11:42:26.241Z,89.81
2017-08-05T11:43:38.861Z,89.67
2017-08-05T11:44:51.159Z,90.19
2017-08-05T11:46:03.468Z,89.86
2017-08-05T11:47:15.853Z,90.34
2017-08-05T11:48:28.416Z,89.86
2017-08-05T11:49:40.982Z,89.76
2017-08-05T11:50:53.536Z,89.86
2017-08-05T11:52:06.149Z,89.95
2017-08-05T11:53:18.467Z,90.05
2017-08-05T11:54:31.083Z,89.86
2017-08-05T11:55:43.360Z,90.34
2017-08-05T11:56:55.963Z,90.05
2017-08-05T11:58:07.613Z,90.24
2017-08-05T11:59:20.217Z,90.05
2017-08-05T12:00:32.505Z,90.24
2017-08-05T12:01:45.100Z,89.9
2017-08-05T12:02:57.660Z,90.09
2017-08-05T12:04:10.232Z,89.9
2017-08-05T12:05:21.879Z,89.42
2017-08-05T12:06:34.506Z,89.13
2017-08-05T12:07:47.105Z,89.47
2017-08-05T12:08:59.717Z,88.69
2017-08-05T12:10:11.937Z,88.89
2017-08-05T12:11:24.593Z,88.5
2017-08-05T12:12:36.890Z,87.53
2017-08-05T12:13:49.544Z,87.38
2017-08-05T12:15:02.175Z,87.87
2017-08-05T12:16:14.542Z,87.29
2017-08-05T12:17:26.821Z,87.38
2017-08-05T12:18:39.420Z,87.19
2017-08-05T12:19:51.737Z,87.09
2017-08-05T12:21:04.294Z,86.9
2017-08-05T12:22:16.866Z,86.61
2017-08-05T12:23:29.473Z,86.71
2017-08-05T12:24:41.737Z,87.29
2017-08-05T12:25:53.715Z,87.53
2017-08-05T12:27:06.304Z,87.73
2017-08-05T12:28:18.888Z,88.21
2017-08-05T12:29:31.466Z,88.21
2017-08-05T12:30:44.100Z,88.5
2017-08-05T12:31:56.722Z,88.02
2017-08-05T12:33:08.673Z,88.21
2017-08-05T12:34:21.021Z,88.11
2017-08-05T12:35:33.894Z,88.5
2017-08-05T12:36:46.261Z,88.06
2017-08-05T12:37:58.793Z,87.87
2017-08-05T12:39:11.089Z,87.58
2017-08-05T12:40:23.684Z,87.23
2017-08-05T12:41:36.255Z,86.46
2017-08-05T12:42:48.826Z,85.78
2017-08-05T12:44:01.122Z,85.53
2017-08-05T12:45:13.675Z,84.72
2017-08-05T12:46:25.998Z,84.72
2017-08-05T12:47:38.585Z,84.82
2017-08-05T12:48:51.191Z,85.59
2017-08-05T12:50:03.800Z,85.4
2017-08-05T12:51:16.083Z,85.88
2017-08-05T12:52:28.362Z,86.32
2017-08-05T12:53:40.966Z,86.9
2017-08-05T12:54:53.586Z,87.38
2017-08-05T12:56:06.115Z,87.67
2017-08-05T12:57:18.758Z,88.5
2017-08-05T12:58:31.448Z,89.85
2017-08-05T12:59:43.750Z,92.26
2017-08-05T13:00:56.098Z,92.36
2017-08-05T13:02:08.706Z,91.88
2017-08-05T13:03:21.014Z,90.91
2017-08-05T13:04:33.288Z,90.62
2017-08-05T13:05:45.529Z,90.72
2017-08-05T13:06:57.806Z,89.47
2017-08-05T13:08:10.135Z,89.37
2017-08-05T13:09:22.398Z,89.85
2017-08-05T13:10:34.700Z,89.65
2017-08-05T13:11:47.285Z,89.47
2017-08-05T13:12:59.574Z,88.79
2017-08-05T13:14:11.539Z,88.4
2017-08-05T13:15:23.873Z,88.69
2017-08-05T13:16:36.505Z,88.5
2017-08-05T13:17:49.094Z,87.53
2017-08-05T13:19:01.715Z,87.82
2017-08-05T13:20:14.324Z,88.02
2017-08-05T13:21:26.610Z,88.11
2017-08-05T13:22:38.942Z,88.31
2017-08-05T13:23:51.263Z,88.5
2017-08-05T13:25:03.792Z,88.21
2017-08-05T13:26:16.037Z,88.11
2017-08-05T13:27:28.577Z,88.11
2017-08-05T13:28:41.196Z,88.21
2017-08-05T13:29:53.467Z,88.45
2017-08-05T13:31:06.023Z,88.25
2017-08-05T13:32:18.636Z,88.25
2017-08-05T13:33:31.262Z,87.87
2017-08-05T13:34:43.835Z,87.77
2017-08-05T13:35:56.361Z,87.67
2017-08-05T13:37:08.654Z,88.11
2017-08-05T13:38:21.001Z,88.69
2017-08-05T13:39:33.316Z,88.98
2017-08-05T13:40:45.891Z,89.32
2017-08-05T13:41:58.491Z,89.9
2017-08-05T13:43:11.147Z,90.19
2017-08-05T13:44:23.714Z,90.19
2017-08-05T13:45:36.002Z,90.77
2017-08-05T13:46:48.618Z,91.16
2017-08-05T13:48:01.186Z,91.11
2017-08-05T13:49:12.560Z,91.02
2017-08-05T13:50:25.137Z,91.2
2017-08-05T13:51:37.724Z,91.6
2017-08-05T13:52:49.676Z,91.69
2017-08-05T13:54:02.266Z,91.55
2017-08-05T13:55:14.543Z,92.22
2017-08-05T13:56:26.793Z,92.8
2017-08-05T13:57:39.091Z,93.38
2017-08-05T13:58:51.701Z,93.86
2017-08-05T14:00:04.260Z,95.26
2017-08-05T14:01:16.600Z,97.28
2017-08-05T14:02:28.917Z,98.82
2017-08-05T14:03:41.188Z,99.21
2017-08-05T14:04:53.782Z,98.49
2017-08-05T14:06:06.384Z,99.11
2017-08-05T14:07:18.676Z,99.99
2017-08-05T14:08:31.309Z,99.99
2017-08-05T14:09:43.915Z,99.99
2017-08-05T14:10:56.540Z,99.99
2017-08-05T14:12:09.110Z,99.99
2017-08-05T14:13:21.653Z,99.99
2017-08-05T14:14:33.950Z,99.99
2017-08-05T14:15:46.198Z,99.99
2017-08-05T14:16:58.476Z,99.99
2017-08-05T14:18:11.068Z,99.99
2017-08-05T14:19:23.663Z,99.99
2017-08-05T14:20:35.634Z,99.99
2017-08-05T14:21:48.235Z,99.99
2017-08-05T14:23:00.548Z,99.99
2017-08-05T14:24:13.147Z,99.99
2017-08-05T14:25:25.788Z,99.99
2017-08-05T14:26:38.035Z,99.99
2017-08-05T14:27:50.636Z,99.99
2017-08-05T14:29:03.242Z,99.99
2017-08-05T14:30:15.852Z,99.99
2017-08-05T14:31:28.218Z,99.99
2017-08-05T14:32:40.816Z,99.99
2017-08-05T14:33:53.382Z,99.99
2017-08-05T14:35:05.703Z,99.99
2017-08-05T14:36:18.035Z,99.99
2017-08-05T14:37:30.323Z,99.99
2017-08-05T14:38:42.917Z,99.99
2017-08-05T14:39:55.523Z,99.99
2017-08-05T14:41:07.837Z,99.99
2017-08-05T14:42:20.443Z,99.99
2017-08-05T14:43:32.367Z,99.99
2017-08-05T14:44:44.950Z,99.99
2017-08-05T14:45:57.592Z,99.99
2017-08-05T14:47:10.206Z,99.99
2017-08-05T14:48:22.413Z,99.99
2017-08-05T14:49:34.684Z,99.99
2017-08-05T14:50:47.285Z,99.99
2017-08-05T14:51:59.533Z,99.99
2017-08-05T14:53:12.144Z,99.99
2017-08-05T14:54:24.442Z,99.99
2017-08-05T14:55:37.108Z,99.99
2017-08-05T14:56:49.377Z,99.99
2017-08-05T14:58:01.703Z,99.99
2017-08-05T14:59:14.321Z,99.99
2017-08-05T15:00:26.954Z,99.99
2017-08-05T15:01:39.814Z,99.99
2017-08-05T15:02:52.437Z,99.99
2017-08-05T15:04:04.705Z,99.99
2017-08-05T15:05:17.344Z,99.99
2017-08-05T15:06:29.590Z,99.99
2017-08-05T15:07:41.879Z,99.99
2017-08-05T15:08:54.495Z,99.99
2017-08-05T15:10:07.043Z,99.99
2017-08-05T15:11:19.045Z,99.99
2017-08-05T15:12:31.662Z,99.99
2017-08-05T15:13:43.981Z,99.99
2017-08-05T15:14:56.248Z,99.99
2017-08-05T15:16:08.566Z,99.99
2017-08-05T15:17:20.803Z,99.99
2017-08-05T15:18:33.376Z,99.99
2017-08-05T15:19:46.007Z,99.99
2017-08-05T15:20:58.252Z,99.99
2017-08-05T15:22:10.786Z,99.99
2017-08-05T15:23:23.291Z,99.99
2017-08-05T15:24:35.828Z,99.99
2017-08-05T15:25:48.481Z,99.99
2017-08-05T15:27:00.722Z,99.99
2017-08-05T15:28:13.024Z,99.99
2017-08-05T15:29:25.695Z,99.99
2017-08-05T15:30:38.346Z,99.99
2017-08-05T15:31:50.915Z,99.99
2017-08-05T15:33:03.516Z,99.99
2017-08-05T15:34:16.132Z,99.99
2017-08-05T15:35:28.417Z,99.99